Airfield :
LOGIN :

Register | Disclaimer

   EN    FR    IT 

 










Legend :    VFR   Marginal VFR   IFR   Intensive IFR   Very Intensive IFR
Visi :
Ceiling :
>= 8 km
>= 3000ft
5 to 8 km
1000 to 3000 ft
1500m to 5 km
500 to 1000 ft
800 to 1500m
200 to 500 ft
< 800m
< 200 ft
Symbols :   Thunderstorms  Fog  Heavy snow  Heavy precipitations  Wind > 20 kt
SIGMETs :     Misc.  Thunderstorms  Icing  Turbulence  Mountain Waves  Volcanic Ashes






- Airport Elevation : 20 ft
- IATA code : LSI


EGPB - Sumburgh

CURRENT METAR :
  • 282150Z AUTO VRB01KT 9999 BKN002/// OVC014/// 09/09 Q1030

EXPIRED METARs :
  • 282120Z AUTO 22001KT 9999 BKN002/// OVC013/// 10/09 Q1030
  • 282050Z AUTO VRB02KT 8000 BKN001/// OVC016/// 09/09 Q1030
  • 282020Z AUTO 18004KT 9999 FEW002/// OVC016/// 10/09 Q1030
  • 281950Z AUTO VRB01KT 9999 BKN001/// OVC018/// 10/09 Q1030
  • 281920Z AUTO 21005KT 1700 BR BKN001/// OVC016/// 10/10 Q1030

TAF TAF EGPB
Valid from the 28 at 21:00 until the 29 at 06:00 UTC


281955Z 2821/2906 21007KT 9999 BKN002
TEMPO 2821/2906 0300 FG VV///
BECMG 2903/2906 14012KT



MET'MAP, your aeronautical weather chart ! - Copyright ORBIFLY December 2007 - Disclaimer

ORBIFLY MET'MAP TEAM :

Programming & Development : Alexandra Zaïnal
Concept & original design : Baudouin d'Aumeries
Assistance for programming : Marc-Olivier Méhu
Technical & hardware support : Manuel Goepfert

Contact : metmap@orbifly.com




SOURCES & CREDITS :

   NOAA